sensor_id;sensor_type;location;lat;lon;timestamp;temperature;humidity
15969;DHT22;8085;53.472;9.794;2023-04-24T00:02:04;11.80;99.90
15969;DHT22;8085;53.472;9.794;2023-04-24T00:04:32;11.80;99.90
15969;DHT22;8085;53.472;9.794;2023-04-24T00:06:59;11.80;99.90
15969;DHT22;8085;53.472;9.794;2023-04-24T00:09:25;11.80;99.90
15969;DHT22;8085;53.472;9.794;2023-04-24T00:11:52;11.70;99.90
15969;DHT22;8085;53.472;9.794;2023-04-24T00:14:20;11.70;99.90
15969;DHT22;8085;53.472;9.794;2023-04-24T00:16:47;11.70;99.90
15969;DHT22;8085;53.472;9.794;2023-04-24T00:19:15;11.70;99.90
15969;DHT22;8085;53.472;9.794;2023-04-24T00:21:42;11.70;99.90
15969;DHT22;8085;53.472;9.794;2023-04-24T00:24:09;11.70;99.90
15969;DHT22;8085;53.472;9.794;2023-04-24T00:26:36;11.70;99.90
15969;DHT22;8085;53.472;9.794;2023-04-24T00:29:03;11.70;99.90
15969;DHT22;8085;53.472;9.794;2023-04-24T00:31:30;11.70;99.90
15969;DHT22;8085;53.472;9.794;2023-04-24T00:33:57;11.70;99.90
15969;DHT22;8085;53.472;9.794;2023-04-24T00:36:26;11.70;99.90
15969;DHT22;8085;53.472;9.794;2023-04-24T00:38:53;11.60;99.90
15969;DHT22;8085;53.472;9.794;2023-04-24T00:41:20;11.60;99.90
15969;DHT22;8085;53.472;9.794;2023-04-24T00:43:47;11.60;99.90
15969;DHT22;8085;53.472;9.794;2023-04-24T00:46:14;11.60;99.90
15969;DHT22;8085;53.472;9.794;2023-04-24T00:48:43;11.60;99.90
15969;DHT22;8085;53.472;9.794;2023-04-24T00:51:10;11.50;99.90
15969;DHT22;8085;53.472;9.794;2023-04-24T00:53:38;11.50;99.90
15969;DHT22;8085;53.472;9.794;2023-04-24T00:56:05;11.50;99.90
15969;DHT22;8085;53.472;9.794;2023-04-24T00:58:32;11.50;99.90
15969;DHT22;8085;53.472;9.794;2023-04-24T01:01:00;11.50;99.90
15969;DHT22;8085;53.472;9.794;2023-04-24T01:03:30;11.50;99.90
15969;DHT22;8085;53.472;9.794;2023-04-24T01:05:57;11.50;99.90
15969;DHT22;8085;53.472;9.794;2023-04-24T01:08:24;11.40;99.90
15969;DHT22;8085;53.472;9.794;2023-04-24T01:10:54;11.40;99.90
15969;DHT22;8085;53.472;9.794;2023-04-24T01:13:21;11.40;99.90
15969;DHT22;8085;53.472;9.794;2023-04-24T01:15:48;11.40;99.90
15969;DHT22;8085;53.472;9.794;2023-04-24T01:18:15;11.40;99.90
15969;DHT22;8085;53.472;9.794;2023-04-24T01:20:43;11.40;99.90
15969;DHT22;8085;53.472;9.794;2023-04-24T01:23:13;11.40;99.90
15969;DHT22;8085;53.472;9.794;2023-04-24T01:25:41;11.50;99.90
15969;DHT22;8085;53.472;9.794;2023-04-24T01:28:08;11.50;99.90
15969;DHT22;8085;53.472;9.794;2023-04-24T01:30:35;11.50;99.90
15969;DHT22;8085;53.472;9.794;2023-04-24T01:33:02;11.60;99.90
15969;DHT22;8085;53.472;9.794;2023-04-24T01:35:29;11.60;99.90
15969;DHT22;8085;53.472;9.794;2023-04-24T01:37:56;11.50;99.90
15969;DHT22;8085;53.472;9.794;2023-04-24T01:40:24;11.50;99.90
15969;DHT22;8085;53.472;9.794;2023-04-24T01:42:51;11.60;99.90
15969;DHT22;8085;53.472;9.794;2023-04-24T01:45:19;11.50;99.90
15969;DHT22;8085;53.472;9.794;2023-04-24T01:47:46;11.50;99.90
15969;DHT22;8085;53.472;9.794;2023-04-24T01:50:14;11.50;99.90
15969;DHT22;8085;53.472;9.794;2023-04-24T01:52:41;11.50;99.90
15969;DHT22;8085;53.472;9.794;2023-04-24T01:55:09;11.50;99.90
15969;DHT22;8085;53.472;9.794;2023-04-24T01:57:38;11.50;99.90
15969;DHT22;8085;53.472;9.794;2023-04-24T02:00:06;11.40;99.90
15969;DHT22;8085;53.472;9.794;2023-04-24T02:02:33;11.40;99.90
15969;DHT22;8085;53.472;9.794;2023-04-24T02:05:00;11.40;99.90
15969;DHT22;8085;53.472;9.794;2023-04-24T02:07:28;11.40;99.90
15969;DHT22;8085;53.472;9.794;2023-04-24T02:09:55;11.30;99.90
15969;DHT22;8085;53.472;9.794;2023-04-24T02:12:21;11.30;99.90
15969;DHT22;8085;53.472;9.794;2023-04-24T02:14:50;11.30;99.90
15969;DHT22;8085;53.472;9.794;2023-04-24T02:17:17;11.30;99.90
15969;DHT22;8085;53.472;9.794;2023-04-24T02:19:44;11.20;99.90
15969;DHT22;8085;53.472;9.794;2023-04-24T02:22:11;11.20;99.90
15969;DHT22;8085;53.472;9.794;2023-04-24T02:24:38;11.10;99.90
15969;DHT22;8085;53.472;9.794;2023-04-24T02:27:05;11.10;99.90
15969;DHT22;8085;53.472;9.794;2023-04-24T02:29:32;11.10;99.90
15969;DHT22;8085;53.472;9.794;2023-04-24T02:32:00;11.00;99.90
15969;DHT22;8085;53.472;9.794;2023-04-24T02:34:27;11.00;99.90
15969;DHT22;8085;53.472;9.794;2023-04-24T02:36:54;11.00;99.90
15969;DHT22;8085;53.472;9.794;2023-04-24T02:39:21;10.90;99.90
15969;DHT22;8085;53.472;9.794;2023-04-24T02:41:48;10.90;99.90
15969;DHT22;8085;53.472;9.794;2023-04-24T02:44:15;10.90;99.90
15969;DHT22;8085;53.472;9.794;2023-04-24T02:46:42;10.90;99.90
15969;DHT22;8085;53.472;9.794;2023-04-24T02:49:11;10.90;99.90
15969;DHT22;8085;53.472;9.794;2023-04-24T02:51:38;10.90;99.90
15969;DHT22;8085;53.472;9.794;2023-04-24T02:54:07;10.80;99.90
15969;DHT22;8085;53.472;9.794;2023-04-24T02:56:34;10.80;99.90
15969;DHT22;8085;53.472;9.794;2023-04-24T02:59:01;10.70;99.90
15969;DHT22;8085;53.472;9.794;2023-04-24T03:01:28;10.70;99.90
15969;DHT22;8085;53.472;9.794;2023-04-24T03:03:55;10.70;99.90
15969;DHT22;8085;53.472;9.794;2023-04-24T03:06:23;10.70;99.90
15969;DHT22;8085;53.472;9.794;2023-04-24T03:08:50;10.60;99.90
15969;DHT22;8085;53.472;9.794;2023-04-24T03:11:17;10.60;99.90
15969;DHT22;8085;53.472;9.794;2023-04-24T03:13:44;10.50;99.90
15969;DHT22;8085;53.472;9.794;2023-04-24T03:16:10;10.40;99.90
15969;DHT22;8085;53.472;9.794;2023-04-24T03:18:37;10.40;99.90
15969;DHT22;8085;53.472;9.794;2023-04-24T03:21:04;10.50;99.90
15969;DHT22;8085;53.472;9.794;2023-04-24T03:23:34;10.40;99.90
15969;DHT22;8085;53.472;9.794;2023-04-24T03:26:01;10.40;99.90
15969;DHT22;8085;53.472;9.794;2023-04-24T03:28:27;10.30;99.90
15969;DHT22;8085;53.472;9.794;2023-04-24T03:30:54;10.30;99.90
15969;DHT22;8085;53.472;9.794;2023-04-24T03:33:21;10.30;99.90
15969;DHT22;8085;53.472;9.794;2023-04-24T03:35:48;10.30;99.90
15969;DHT22;8085;53.472;9.794;2023-04-24T03:38:15;10.20;99.90
15969;DHT22;8085;53.472;9.794;2023-04-24T03:40:43;10.20;99.90
15969;DHT22;8085;53.472;9.794;2023-04-24T03:43:10;10.20;99.90
15969;DHT22;8085;53.472;9.794;2023-04-24T03:45:37;10.20;99.90
15969;DHT22;8085;53.472;9.794;2023-04-24T03:48:04;10.20;99.90
15969;DHT22;8085;53.472;9.794;2023-04-24T03:50:31;10.20;99.90
15969;DHT22;8085;53.472;9.794;2023-04-24T03:52:58;10.20;99.90
15969;DHT22;8085;53.472;9.794;2023-04-24T03:55:25;10.20;99.90
15969;DHT22;8085;53.472;9.794;2023-04-24T03:57:53;10.20;99.90
15969;DHT22;8085;53.472;9.794;2023-04-24T04:00:20;10.10;99.90
15969;DHT22;8085;53.472;9.794;2023-04-24T04:02:47;10.10;99.90
15969;DHT22;8085;53.472;9.794;2023-04-24T04:05:14;10.20;99.90
15969;DHT22;8085;53.472;9.794;2023-04-24T04:07:40;10.10;99.90
15969;DHT22;8085;53.472;9.794;2023-04-24T04:10:08;10.10;99.90
15969;DHT22;8085;53.472;9.794;2023-04-24T04:12:35;10.00;99.90
15969;DHT22;8085;53.472;9.794;2023-04-24T04:15:04;10.00;99.90
15969;DHT22;8085;53.472;9.794;2023-04-24T04:17:32;10.00;99.90
15969;DHT22;8085;53.472;9.794;2023-04-24T04:19:59;10.00;99.90
15969;DHT22;8085;53.472;9.794;2023-04-24T04:22:26;10.00;99.90
15969;DHT22;8085;53.472;9.794;2023-04-24T04:24:53;9.90;99.90
15969;DHT22;8085;53.472;9.794;2023-04-24T04:27:20;9.90;99.90
15969;DHT22;8085;53.472;9.794;2023-04-24T04:29:47;9.90;99.90
15969;DHT22;8085;53.472;9.794;2023-04-24T04:32:15;10.00;99.90
15969;DHT22;8085;53.472;9.794;2023-04-24T04:34:42;10.10;99.90
15969;DHT22;8085;53.472;9.794;2023-04-24T04:37:10;10.10;99.90
15969;DHT22;8085;53.472;9.794;2023-04-24T04:39:38;10.20;99.90
15969;DHT22;8085;53.472;9.794;2023-04-24T04:42:05;10.20;99.90
15969;DHT22;8085;53.472;9.794;2023-04-24T04:44:32;10.20;99.90
15969;DHT22;8085;53.472;9.794;2023-04-24T04:47:01;10.20;99.90
15969;DHT22;8085;53.472;9.794;2023-04-24T04:49:32;10.20;99.90
15969;DHT22;8085;53.472;9.794;2023-04-24T04:52:00;10.20;99.90
15969;DHT22;8085;53.472;9.794;2023-04-24T04:54:27;10.20;99.90
15969;DHT22;8085;53.472;9.794;2023-04-24T04:56:53;10.40;99.90
15969;DHT22;8085;53.472;9.794;2023-04-24T04:59:21;10.60;99.90
15969;DHT22;8085;53.472;9.794;2023-04-24T05:01:47;10.90;99.90
15969;DHT22;8085;53.472;9.794;2023-04-24T05:04:14;11.30;99.90
15969;DHT22;8085;53.472;9.794;2023-04-24T05:06:42;11.30;99.90
15969;DHT22;8085;53.472;9.794;2023-04-24T05:09:12;11.40;99.90
15969;DHT22;8085;53.472;9.794;2023-04-24T05:11:39;11.40;18.80
15969;DHT22;8085;53.472;9.794;2023-04-24T05:14:06;11.10;17.40
15969;DHT22;8085;53.472;9.794;2023-04-24T05:16:33;11.10;22.00
15969;DHT22;8085;53.472;9.794;2023-04-24T05:19:00;11.00;28.90
15969;DHT22;8085;53.472;9.794;2023-04-24T05:21:27;11.10;40.00
15969;DHT22;8085;53.472;9.794;2023-04-24T05:23:56;11.90;24.90
15969;DHT22;8085;53.472;9.794;2023-04-24T05:26:23;13.20;1.00
15969;DHT22;8085;53.472;9.794;2023-04-24T05:28:49;14.10;1.00
15969;DHT22;8085;53.472;9.794;2023-04-24T05:31:16;14.40;1.00
15969;DHT22;8085;53.472;9.794;2023-04-24T05:33:43;14.50;99.90
15969;DHT22;8085;53.472;9.794;2023-04-24T05:36:10;14.20;99.90
15969;DHT22;8085;53.472;9.794;2023-04-24T05:38:37;14.10;1.00
15969;DHT22;8085;53.472;9.794;2023-04-24T05:41:05;14.10;1.00
15969;DHT22;8085;53.472;9.794;2023-04-24T05:43:32;14.00;1.00
15969;DHT22;8085;53.472;9.794;2023-04-24T05:45:59;12.80;1.00
15969;DHT22;8085;53.472;9.794;2023-04-24T05:48:26;12.30;1.00
15969;DHT22;8085;53.472;9.794;2023-04-24T05:50:53;11.90;1.00
15969;DHT22;8085;53.472;9.794;2023-04-24T05:53:20;11.70;1.00
15969;DHT22;8085;53.472;9.794;2023-04-24T05:55:47;11.60;1.00
15969;DHT22;8085;53.472;9.794;2023-04-24T05:58:16;11.40;1.00
15969;DHT22;8085;53.472;9.794;2023-04-24T06:00:43;11.40;1.00
15969;DHT22;8085;53.472;9.794;2023-04-24T06:03:12;11.50;1.00
15969;DHT22;8085;53.472;9.794;2023-04-24T06:05:41;11.50;1.00
15969;DHT22;8085;53.472;9.794;2023-04-24T06:08:09;11.50;1.00
15969;DHT22;8085;53.472;9.794;2023-04-24T06:10:38;11.50;1.00
15969;DHT22;8085;53.472;9.794;2023-04-24T06:13:05;11.60;1.00
15969;DHT22;8085;53.472;9.794;2023-04-24T06:15:36;11.60;1.00
15969;DHT22;8085;53.472;9.794;2023-04-24T06:18:04;11.70;1.00
15969;DHT22;8085;53.472;9.794;2023-04-24T06:20:31;11.70;1.00
15969;DHT22;8085;53.472;9.794;2023-04-24T06:22:58;11.70;1.00
15969;DHT22;8085;53.472;9.794;2023-04-24T06:25:25;11.70;1.00
15969;DHT22;8085;53.472;9.794;2023-04-24T06:27:53;11.80;1.00
15969;DHT22;8085;53.472;9.794;2023-04-24T06:30:20;11.80;1.00
15969;DHT22;8085;53.472;9.794;2023-04-24T06:32:50;11.80;1.00
15969;DHT22;8085;53.472;9.794;2023-04-24T06:35:17;11.80;1.00
15969;DHT22;8085;53.472;9.794;2023-04-24T06:37:44;11.90;1.00
15969;DHT22;8085;53.472;9.794;2023-04-24T06:40:11;12.00;1.00
15969;DHT22;8085;53.472;9.794;2023-04-24T06:42:38;12.00;1.00
15969;DHT22;8085;53.472;9.794;2023-04-24T06:45:06;12.00;1.00
15969;DHT22;8085;53.472;9.794;2023-04-24T06:47:33;12.00;1.00
15969;DHT22;8085;53.472;9.794;2023-04-24T06:50:01;12.00;1.00
15969;DHT22;8085;53.472;9.794;2023-04-24T06:52:28;12.10;1.00
15969;DHT22;8085;53.472;9.794;2023-04-24T06:55:00;12.20;1.00
15969;DHT22;8085;53.472;9.794;2023-04-24T06:57:27;12.20;1.00
15969;DHT22;8085;53.472;9.794;2023-04-24T06:59:55;12.20;1.00
15969;DHT22;8085;53.472;9.794;2023-04-24T07:02:22;12.30;1.00
15969;DHT22;8085;53.472;9.794;2023-04-24T07:04:50;12.40;1.00
15969;DHT22;8085;53.472;9.794;2023-04-24T07:07:18;12.40;1.00
15969;DHT22;8085;53.472;9.794;2023-04-24T07:09:46;12.40;1.00
15969;DHT22;8085;53.472;9.794;2023-04-24T07:12:14;12.50;1.00
15969;DHT22;8085;53.472;9.794;2023-04-24T07:14:42;12.50;1.00
15969;DHT22;8085;53.472;9.794;2023-04-24T07:17:09;12.50;1.00
15969;DHT22;8085;53.472;9.794;2023-04-24T07:19:38;12.50;1.00
15969;DHT22;8085;53.472;9.794;2023-04-24T07:22:05;12.60;1.00
15969;DHT22;8085;53.472;9.794;2023-04-24T07:24:34;12.70;1.00
15969;DHT22;8085;53.472;9.794;2023-04-24T07:27:01;12.90;1.00
15969;DHT22;8085;53.472;9.794;2023-04-24T07:29:28;13.00;1.00
15969;DHT22;8085;53.472;9.794;2023-04-24T07:31:55;12.80;1.00
15969;DHT22;8085;53.472;9.794;2023-04-24T07:34:23;13.00;1.00
15969;DHT22;8085;53.472;9.794;2023-04-24T07:36:50;12.90;1.00
15969;DHT22;8085;53.472;9.794;2023-04-24T07:39:18;13.10;1.00
15969;DHT22;8085;53.472;9.794;2023-04-24T07:41:46;13.00;1.00
15969;DHT22;8085;53.472;9.794;2023-04-24T07:44:13;13.00;1.00
15969;DHT22;8085;53.472;9.794;2023-04-24T07:46:42;12.70;1.00
15969;DHT22;8085;53.472;9.794;2023-04-24T07:49:09;12.80;1.00
15969;DHT22;8085;53.472;9.794;2023-04-24T07:51:36;12.90;1.00
15969;DHT22;8085;53.472;9.794;2023-04-24T07:54:04;12.80;1.00
15969;DHT22;8085;53.472;9.794;2023-04-24T07:56:33;12.90;1.00
15969;DHT22;8085;53.472;9.794;2023-04-24T07:59:01;13.00;1.00
15969;DHT22;8085;53.472;9.794;2023-04-24T08:01:28;12.90;1.00
15969;DHT22;8085;53.472;9.794;2023-04-24T08:03:56;12.80;1.00
15969;DHT22;8085;53.472;9.794;2023-04-24T08:06:23;12.80;1.00
15969;DHT22;8085;53.472;9.794;2023-04-24T08:08:53;12.70;1.00
15969;DHT22;8085;53.472;9.794;2023-04-24T08:11:20;12.70;1.00
15969;DHT22;8085;53.472;9.794;2023-04-24T08:13:47;12.70;1.00
15969;DHT22;8085;53.472;9.794;2023-04-24T08:16:16;12.80;1.00
15969;DHT22;8085;53.472;9.794;2023-04-24T08:18:43;12.90;1.00
15969;DHT22;8085;53.472;9.794;2023-04-24T08:21:13;13.00;1.00
15969;DHT22;8085;53.472;9.794;2023-04-24T08:23:43;13.00;1.00
15969;DHT22;8085;53.472;9.794;2023-04-24T08:26:10;12.90;1.00
15969;DHT22;8085;53.472;9.794;2023-04-24T08:28:37;12.60;1.00
15969;DHT22;8085;53.472;9.794;2023-04-24T08:31:04;12.60;1.00
15969;DHT22;8085;53.472;9.794;2023-04-24T08:33:33;12.60;1.00
15969;DHT22;8085;53.472;9.794;2023-04-24T08:36:01;12.70;1.00
15969;DHT22;8085;53.472;9.794;2023-04-24T08:38:28;12.60;1.00
15969;DHT22;8085;53.472;9.794;2023-04-24T08:40:57;12.70;1.00
15969;DHT22;8085;53.472;9.794;2023-04-24T08:43:25;12.80;1.00
15969;DHT22;8085;53.472;9.794;2023-04-24T08:45:52;12.90;1.00
15969;DHT22;8085;53.472;9.794;2023-04-24T08:48:20;12.90;1.00
15969;DHT22;8085;53.472;9.794;2023-04-24T08:50:50;13.00;1.00
15969;DHT22;8085;53.472;9.794;2023-04-24T08:53:18;13.20;1.00
15969;DHT22;8085;53.472;9.794;2023-04-24T08:55:47;13.20;1.00
15969;DHT22;8085;53.472;9.794;2023-04-24T08:58:16;13.10;1.00
15969;DHT22;8085;53.472;9.794;2023-04-24T09:00:43;12.90;1.00
15969;DHT22;8085;53.472;9.794;2023-04-24T09:03:13;12.80;1.00
15969;DHT22;8085;53.472;9.794;2023-04-24T09:05:42;13.00;1.00
15969;DHT22;8085;53.472;9.794;2023-04-24T09:08:13;12.90;1.00
15969;DHT22;8085;53.472;9.794;2023-04-24T09:10:41;12.80;1.00
15969;DHT22;8085;53.472;9.794;2023-04-24T09:13:08;12.90;1.00
15969;DHT22;8085;53.472;9.794;2023-04-24T09:15:36;12.90;1.00
15969;DHT22;8085;53.472;9.794;2023-04-24T09:18:04;12.90;1.00
15969;DHT22;8085;53.472;9.794;2023-04-24T09:20:34;12.80;1.00
15969;DHT22;8085;53.472;9.794;2023-04-24T09:23:02;12.70;1.00
15969;DHT22;8085;53.472;9.794;2023-04-24T09:25:33;12.70;1.00
15969;DHT22;8085;53.472;9.794;2023-04-24T09:28:02;12.40;1.00
15969;DHT22;8085;53.472;9.794;2023-04-24T09:30:30;12.50;1.00
15969;DHT22;8085;53.472;9.794;2023-04-24T09:33:10;12.60;1.00
15969;DHT22;8085;53.472;9.794;2023-04-24T09:35:41;12.50;1.00
15969;DHT22;8085;53.472;9.794;2023-04-24T09:38:09;12.50;1.00
15969;DHT22;8085;53.472;9.794;2023-04-24T09:40:37;12.50;1.00
15969;DHT22;8085;53.472;9.794;2023-04-24T09:43:04;12.50;1.00
15969;DHT22;8085;53.472;9.794;2023-04-24T09:45:37;12.50;1.00
15969;DHT22;8085;53.472;9.794;2023-04-24T09:48:05;12.30;1.00
15969;DHT22;8085;53.472;9.794;2023-04-24T09:50:33;12.40;1.00
15969;DHT22;8085;53.472;9.794;2023-04-24T09:53:03;12.30;1.00
15969;DHT22;8085;53.472;9.794;2023-04-24T09:55:31;12.30;1.00
15969;DHT22;8085;53.472;9.794;2023-04-24T09:58:01;12.30;1.00
15969;DHT22;8085;53.472;9.794;2023-04-24T10:00:31;12.30;1.00
15969;DHT22;8085;53.472;9.794;2023-04-24T10:02:59;12.30;1.00
15969;DHT22;8085;53.472;9.794;2023-04-24T10:05:28;12.40;1.00
15969;DHT22;8085;53.472;9.794;2023-04-24T10:07:57;12.60;1.00
15969;DHT22;8085;53.472;9.794;2023-04-24T10:10:24;12.70;1.00
15969;DHT22;8085;53.472;9.794;2023-04-24T10:12:52;12.60;1.00
15969;DHT22;8085;53.472;9.794;2023-04-24T10:15:21;12.60;1.00
15969;DHT22;8085;53.472;9.794;2023-04-24T10:17:51;12.70;1.00
15969;DHT22;8085;53.472;9.794;2023-04-24T10:20:21;12.60;1.00
15969;DHT22;8085;53.472;9.794;2023-04-24T10:22:49;12.70;1.00
15969;DHT22;8085;53.472;9.794;2023-04-24T10:25:20;12.70;1.00
15969;DHT22;8085;53.472;9.794;2023-04-24T10:27:49;12.70;1.00
15969;DHT22;8085;53.472;9.794;2023-04-24T10:30:17;12.70;1.00
15969;DHT22;8085;53.472;9.794;2023-04-24T10:32:46;12.80;1.00
15969;DHT22;8085;53.472;9.794;2023-04-24T10:35:14;13.00;1.00
15969;DHT22;8085;53.472;9.794;2023-04-24T10:37:46;13.10;1.00
15969;DHT22;8085;53.472;9.794;2023-04-24T10:40:18;13.10;99.90
15969;DHT22;8085;53.472;9.794;2023-04-24T10:42:48;13.00;99.90
15969;DHT22;8085;53.472;9.794;2023-04-24T10:45:19;12.90;99.90
15969;DHT22;8085;53.472;9.794;2023-04-24T10:47:57;13.10;1.00
15969;DHT22;8085;53.472;9.794;2023-04-24T10:50:28;13.30;1.00
15969;DHT22;8085;53.472;9.794;2023-04-24T10:53:06;13.60;99.90
15969;DHT22;8085;53.472;9.794;2023-04-24T10:55:42;14.00;22.50
15969;DHT22;8085;53.472;9.794;2023-04-24T10:58:09;13.90;1.00
15969;DHT22;8085;53.472;9.794;2023-04-24T11:00:41;13.80;99.90
15969;DHT22;8085;53.472;9.794;2023-04-24T11:03:25;13.60;99.90
15969;DHT22;8085;53.472;9.794;2023-04-24T11:05:56;13.60;99.90
15969;DHT22;8085;53.472;9.794;2023-04-24T11:08:25;13.60;99.90
15969;DHT22;8085;53.472;9.794;2023-04-24T11:11:01;13.50;1.00
15969;DHT22;8085;53.472;9.794;2023-04-24T11:16:43;13.50;97.10
15969;DHT22;8085;53.472;9.794;2023-04-24T11:19:22;13.40;1.00
15969;DHT22;8085;53.472;9.794;2023-04-24T11:21:55;13.40;99.90
15969;DHT22;8085;53.472;9.794;2023-04-24T11:24:28;13.50;1.00
15969;DHT22;8085;53.472;9.794;2023-04-24T11:26:57;13.40;99.90
15969;DHT22;8085;53.472;9.794;2023-04-24T11:29:39;13.50;1.00
15969;DHT22;8085;53.472;9.794;2023-04-24T11:32:18;13.40;1.00
15969;DHT22;8085;53.472;9.794;2023-04-24T11:34:48;13.30;99.90
15969;DHT22;8085;53.472;9.794;2023-04-24T11:37:15;13.10;99.90
15969;DHT22;8085;53.472;9.794;2023-04-24T11:39:43;13.10;1.00
15969;DHT22;8085;53.472;9.794;2023-04-24T11:42:10;13.10;94.80
15969;DHT22;8085;53.472;9.794;2023-04-24T11:44:37;13.20;99.90
15969;DHT22;8085;53.472;9.794;2023-04-24T11:47:05;13.20;99.90
15969;DHT22;8085;53.472;9.794;2023-04-24T11:49:32;13.30;99.90
15969;DHT22;8085;53.472;9.794;2023-04-24T11:52:01;13.20;1.00
15969;DHT22;8085;53.472;9.794;2023-04-24T11:54:28;13.20;1.00
15969;DHT22;8085;53.472;9.794;2023-04-24T11:56:56;13.10;1.00
15969;DHT22;8085;53.472;9.794;2023-04-24T11:59:23;12.90;99.90
15969;DHT22;8085;53.472;9.794;2023-04-24T12:01:51;12.80;99.90
15969;DHT22;8085;53.472;9.794;2023-04-24T12:04:18;12.70;1.00
15969;DHT22;8085;53.472;9.794;2023-04-24T12:07:02;12.70;1.00
15969;DHT22;8085;53.472;9.794;2023-04-24T12:09:40;12.60;1.00
15969;DHT22;8085;53.472;9.794;2023-04-24T12:12:08;12.50;99.90
15969;DHT22;8085;53.472;9.794;2023-04-24T12:14:47;12.40;99.90
15969;DHT22;8085;53.472;9.794;2023-04-24T12:17:14;12.40;99.90
15969;DHT22;8085;53.472;9.794;2023-04-24T12:19:46;12.30;1.00
15969;DHT22;8085;53.472;9.794;2023-04-24T12:22:15;12.30;1.00
15969;DHT22;8085;53.472;9.794;2023-04-24T12:24:59;12.20;99.90
15969;DHT22;8085;53.472;9.794;2023-04-24T12:27:27;12.30;99.90
15969;DHT22;8085;53.472;9.794;2023-04-24T12:29:56;12.20;99.90
15969;DHT22;8085;53.472;9.794;2023-04-24T12:32:24;12.20;1.00
15969;DHT22;8085;53.472;9.794;2023-04-24T12:34:54;12.20;99.90
15969;DHT22;8085;53.472;9.794;2023-04-24T12:37:25;12.20;99.90
15969;DHT22;8085;53.472;9.794;2023-04-24T12:39:59;12.10;1.00
15969;DHT22;8085;53.472;9.794;2023-04-24T12:42:27;12.10;1.00
15969;DHT22;8085;53.472;9.794;2023-04-24T12:44:57;12.10;1.00
15969;DHT22;8085;53.472;9.794;2023-04-24T12:47:27;12.10;1.00
15969;DHT22;8085;53.472;9.794;2023-04-24T12:49:54;12.10;1.00
15969;DHT22;8085;53.472;9.794;2023-04-24T12:52:27;12.10;1.00
15969;DHT22;8085;53.472;9.794;2023-04-24T12:54:57;12.20;1.00
15969;DHT22;8085;53.472;9.794;2023-04-24T12:57:25;12.10;1.00
15969;DHT22;8085;53.472;9.794;2023-04-24T12:59:53;12.10;1.00
15969;DHT22;8085;53.472;9.794;2023-04-24T13:02:20;12.10;1.00
15969;DHT22;8085;53.472;9.794;2023-04-24T13:04:48;12.10;1.00
15969;DHT22;8085;53.472;9.794;2023-04-24T13:07:16;12.10;1.00
15969;DHT22;8085;53.472;9.794;2023-04-24T13:09:45;12.10;1.00
15969;DHT22;8085;53.472;9.794;2023-04-24T13:12:18;12.10;1.00
15969;DHT22;8085;53.472;9.794;2023-04-24T13:14:48;12.10;1.00
15969;DHT22;8085;53.472;9.794;2023-04-24T13:17:15;12.00;1.00
15969;DHT22;8085;53.472;9.794;2023-04-24T13:19:44;11.90;1.00
15969;DHT22;8085;53.472;9.794;2023-04-24T13:22:12;11.90;1.00
15969;DHT22;8085;53.472;9.794;2023-04-24T13:24:39;11.80;1.00
15969;DHT22;8085;53.472;9.794;2023-04-24T13:27:09;11.70;1.00
15969;DHT22;8085;53.472;9.794;2023-04-24T13:29:36;11.70;1.00
15969;DHT22;8085;53.472;9.794;2023-04-24T13:32:03;11.70;1.00
15969;DHT22;8085;53.472;9.794;2023-04-24T13:34:31;11.80;1.00
15969;DHT22;8085;53.472;9.794;2023-04-24T13:37:01;12.00;1.00
15969;DHT22;8085;53.472;9.794;2023-04-24T13:39:31;12.40;1.00
15969;DHT22;8085;53.472;9.794;2023-04-24T13:41:58;12.80;1.00
15969;DHT22;8085;53.472;9.794;2023-04-24T13:44:27;13.10;1.00
15969;DHT22;8085;53.472;9.794;2023-04-24T13:46:58;13.00;99.90
15969;DHT22;8085;53.472;9.794;2023-04-24T13:49:31;12.90;1.00
15969;DHT22;8085;53.472;9.794;2023-04-24T13:52:01;12.90;99.90
15969;DHT22;8085;53.472;9.794;2023-04-24T13:54:33;12.90;99.90
15969;DHT22;8085;53.472;9.794;2023-04-24T13:57:00;12.80;99.90
15969;DHT22;8085;53.472;9.794;2023-04-24T13:59:30;12.60;99.90
15969;DHT22;8085;53.472;9.794;2023-04-24T14:01:57;12.50;1.00
15969;DHT22;8085;53.472;9.794;2023-04-24T14:04:24;12.30;1.00
15969;DHT22;8085;53.472;9.794;2023-04-24T14:06:51;12.10;1.00
15969;DHT22;8085;53.472;9.794;2023-04-24T14:09:18;12.00;1.00
15969;DHT22;8085;53.472;9.794;2023-04-24T14:11:45;12.00;1.00
15969;DHT22;8085;53.472;9.794;2023-04-24T14:14:12;11.80;1.00
15969;DHT22;8085;53.472;9.794;2023-04-24T14:16:41;11.70;1.00
15969;DHT22;8085;53.472;9.794;2023-04-24T14:19:08;11.70;1.00
15969;DHT22;8085;53.472;9.794;2023-04-24T14:21:37;11.60;1.00
15969;DHT22;8085;53.472;9.794;2023-04-24T14:24:09;11.30;20.20
15969;DHT22;8085;53.472;9.794;2023-04-24T14:26:41;11.00;81.40
15969;DHT22;8085;53.472;9.794;2023-04-24T14:29:08;10.90;95.50
15969;DHT22;8085;53.472;9.794;2023-04-24T14:31:37;10.70;99.90
15969;DHT22;8085;53.472;9.794;2023-04-24T14:34:07;10.60;99.90
15969;DHT22;8085;53.472;9.794;2023-04-24T14:36:40;10.60;99.90
15969;DHT22;8085;53.472;9.794;2023-04-24T14:39:09;10.80;99.90
15969;DHT22;8085;53.472;9.794;2023-04-24T14:41:36;10.70;99.90
15969;DHT22;8085;53.472;9.794;2023-04-24T14:44:05;10.70;99.90
15969;DHT22;8085;53.472;9.794;2023-04-24T14:46:32;10.60;99.90
15969;DHT22;8085;53.472;9.794;2023-04-24T14:48:59;10.50;99.90
15969;DHT22;8085;53.472;9.794;2023-04-24T14:51:27;10.40;99.90
15969;DHT22;8085;53.472;9.794;2023-04-24T14:53:54;10.40;99.90
15969;DHT22;8085;53.472;9.794;2023-04-24T14:56:23;10.20;99.90
15969;DHT22;8085;53.472;9.794;2023-04-24T14:58:50;10.30;99.90
15969;DHT22;8085;53.472;9.794;2023-04-24T15:01:17;10.20;99.90
15969;DHT22;8085;53.472;9.794;2023-04-24T15:03:44;10.10;99.90
15969;DHT22;8085;53.472;9.794;2023-04-24T15:06:11;10.10;99.90
15969;DHT22;8085;53.472;9.794;2023-04-24T15:08:42;10.00;99.90
15969;DHT22;8085;53.472;9.794;2023-04-24T15:11:09;10.10;99.90
15969;DHT22;8085;53.472;9.794;2023-04-24T15:13:36;10.00;99.90
15969;DHT22;8085;53.472;9.794;2023-04-24T15:16:03;10.00;99.90
15969;DHT22;8085;53.472;9.794;2023-04-24T15:18:31;9.90;99.90
15969;DHT22;8085;53.472;9.794;2023-04-24T15:20:58;9.90;99.90
15969;DHT22;8085;53.472;9.794;2023-04-24T15:23:25;9.70;99.90
15969;DHT22;8085;53.472;9.794;2023-04-24T15:25:54;9.70;99.90
15969;DHT22;8085;53.472;9.794;2023-04-24T15:28:21;9.50;99.90
15969;DHT22;8085;53.472;9.794;2023-04-24T15:30:48;9.30;96.80
15969;DHT22;8085;53.472;9.794;2023-04-24T15:33:16;9.20;99.90
15969;DHT22;8085;53.472;9.794;2023-04-24T15:35:43;9.20;99.90
15969;DHT22;8085;53.472;9.794;2023-04-24T15:38:10;9.20;99.90
15969;DHT22;8085;53.472;9.794;2023-04-24T15:40:37;9.10;99.90
15969;DHT22;8085;53.472;9.794;2023-04-24T15:43:05;9.20;99.90
15969;DHT22;8085;53.472;9.794;2023-04-24T15:45:33;9.20;99.90
15969;DHT22;8085;53.472;9.794;2023-04-24T15:48:00;9.10;99.90
15969;DHT22;8085;53.472;9.794;2023-04-24T15:50:30;9.10;99.90
15969;DHT22;8085;53.472;9.794;2023-04-24T15:52:58;9.00;99.90
15969;DHT22;8085;53.472;9.794;2023-04-24T15:55:30;8.90;99.90
15969;DHT22;8085;53.472;9.794;2023-04-24T15:57:58;8.90;99.90
15969;DHT22;8085;53.472;9.794;2023-04-24T16:00:27;8.80;99.90
15969;DHT22;8085;53.472;9.794;2023-04-24T16:02:59;8.80;99.90
15969;DHT22;8085;53.472;9.794;2023-04-24T16:05:26;8.80;99.90